HEAX

El Nouzha Airport

Alexandria, Egypt
METAR HEAX 211400Z 32013KT 9999 SCT020 22/13 Q1010 NOSIG
Observed Flight Rules
Apr-21 @ 14:00 UTC (2 hours ago) Visual Flight Rules
Wind Visibility Clouds
320° at 13 knots 10,000+ meters
  • Scattered at 2,000' AGL
Temperatures Readings
Current 22°C / 72°F
Dewpoint 13°C / 55°F
Humidity 57%
Altimeter 29.82" Hg
Pressure 1010 hPa
Elevation 7
METAR HEAX 211400Z 32013KT 9999 SCT020 22/13 Q1010 NOSIG
Observed Flight Rules
Apr-21 @ 14:00 UTC
(2 hours ago)
VFR
Wind Visibility
320° at 13 knots 10,000+ meters
Clouds
  • Scattered at 2,000' AGL
Temperature Dewpoint
22°C / 72°F 13°C / 55°F
Humidity Altimeter Pressure
57% 29.82" Hg 1010 hPa